createdAt,value
2022-09-13T00:01:26.240Z,100.00
2022-09-13T00:03:55.056Z,100.00
2022-09-13T00:06:25.564Z,100.00
2022-09-13T00:08:54.981Z,100.00
2022-09-13T00:11:26.382Z,100.00
2022-09-13T00:13:58.765Z,100.00
2022-09-13T00:16:30.075Z,100.00
2022-09-13T00:19:00.719Z,100.00
2022-09-13T00:21:30.980Z,100.00
2022-09-13T00:24:00.392Z,100.00
2022-09-13T00:26:30.239Z,100.00
2022-09-13T00:29:00.469Z,100.00
2022-09-13T00:31:30.389Z,100.00
2022-09-13T00:34:01.179Z,100.00
2022-09-13T00:36:31.498Z,100.00
2022-09-13T00:39:01.463Z,100.00
2022-09-13T00:41:30.552Z,100.00
2022-09-13T00:44:01.871Z,100.00
2022-09-13T00:46:38.864Z,100.00
2022-09-13T00:49:17.951Z,100.00
2022-09-13T00:56:26.297Z,100.00
2022-09-13T00:59:02.363Z,100.00
2022-09-13T01:01:48.228Z,100.00
2022-09-13T01:04:20.504Z,100.00
2022-09-13T01:06:53.302Z,100.00
2022-09-13T01:09:22.114Z,100.00
2022-09-13T01:12:04.479Z,100.00
2022-09-13T01:14:34.471Z,100.00
2022-09-13T01:17:03.406Z,100.00
2022-09-13T01:19:32.210Z,100.00
2022-09-13T01:22:56.255Z,100.00
2022-09-13T01:26:30.895Z,100.00
2022-09-13T01:29:39.296Z,100.00
2022-09-13T01:32:24.730Z,100.00
2022-09-13T01:35:11.168Z,100.00
2022-09-13T01:37:55.626Z,100.00
2022-09-13T01:40:45.650Z,100.00
2022-09-13T01:43:43.864Z,100.00
2022-09-13T01:46:20.021Z,100.00
2022-09-13T01:49:03.844Z,100.00
2022-09-13T01:51:40.523Z,100.00
2022-09-13T01:54:22.466Z,100.00
2022-09-13T01:57:01.434Z,100.00
2022-09-13T01:59:43.463Z,100.00
2022-09-13T02:02:20.376Z,100.00
2022-09-13T02:04:57.544Z,100.00
2022-09-13T02:07:34.131Z,100.00
2022-09-13T02:10:15.846Z,100.00
2022-09-13T02:12:49.322Z,100.00
2022-09-13T02:15:24.020Z,100.00
2022-09-13T02:18:06.951Z,100.00
2022-09-13T02:20:43.215Z,100.00
2022-09-13T02:23:19.674Z,100.00
2022-09-13T02:25:51.706Z,100.00
2022-09-13T02:28:29.735Z,100.00
2022-09-13T02:31:01.933Z,100.00
2022-09-13T02:33:36.969Z,100.00
2022-09-13T02:36:14.235Z,100.00
2022-09-13T02:38:49.966Z,100.00
2022-09-13T02:41:27.617Z,100.00
2022-09-13T02:44:07.365Z,100.00
2022-09-13T02:47:22.790Z,100.00
2022-09-13T02:50:03.700Z,100.00
2022-09-13T02:52:49.996Z,100.00
2022-09-13T02:55:26.807Z,100.00
2022-09-13T02:58:05.701Z,100.00
2022-09-13T03:00:34.683Z,100.00
2022-09-13T03:03:09.959Z,100.00
2022-09-13T03:05:38.641Z,100.00
2022-09-13T03:08:13.361Z,100.00
2022-09-13T03:10:55.603Z,100.00
2022-09-13T03:13:52.337Z,100.00
2022-09-13T03:16:42.297Z,100.00
2022-09-13T03:19:36.791Z,100.00
2022-09-13T03:22:32.348Z,100.00
2022-09-13T03:25:13.612Z,100.00
2022-09-13T03:27:53.860Z,100.00
2022-09-13T03:30:22.738Z,100.00
2022-09-13T03:32:59.610Z,100.00
2022-09-13T03:35:39.385Z,100.00
2022-09-13T03:38:14.353Z,100.00
2022-09-13T03:40:50.026Z,100.00
2022-09-13T03:43:26.680Z,100.00
2022-09-13T03:46:01.120Z,100.00
2022-09-13T03:48:32.671Z,100.00
2022-09-13T03:51:01.596Z,100.00
2022-09-13T03:53:37.073Z,100.00
2022-09-13T03:56:15.801Z,100.00
2022-09-13T03:58:45.013Z,100.00
2022-09-13T04:01:13.960Z,100.00
2022-09-13T04:03:42.571Z,100.00
2022-09-13T04:06:11.795Z,100.00
2022-09-13T04:13:13.390Z,100.00
2022-09-13T04:15:42.292Z,100.00
2022-09-13T04:18:11.464Z,100.00
2022-09-13T04:20:40.122Z,100.00
2022-09-13T04:23:09.428Z,100.00
2022-09-13T04:25:40.901Z,100.00
2022-09-13T04:28:09.676Z,100.00
2022-09-13T04:30:42.590Z,100.00
2022-09-13T04:33:11.692Z,100.00
2022-09-13T04:35:42.151Z,100.00
2022-09-13T04:38:11.142Z,100.00
2022-09-13T04:45:13.013Z,100.00
2022-09-13T04:47:43.281Z,100.00
2022-09-13T04:50:11.886Z,100.00
2022-09-13T04:52:40.534Z,100.00
2022-09-13T04:55:10.250Z,100.00
2022-09-13T04:57:38.886Z,100.00
2022-09-13T05:00:10.382Z,100.00
2022-09-13T05:02:39.468Z,100.00
2022-09-13T05:05:10.435Z,100.00
2022-09-13T05:07:39.375Z,100.00
2022-09-13T05:10:09.680Z,100.00
2022-09-13T05:12:38.264Z,100.00
2022-09-13T05:15:08.978Z,100.00
2022-09-13T05:17:37.839Z,100.00
2022-09-13T05:20:07.811Z,100.00
2022-09-13T05:22:37.786Z,100.00
2022-09-13T05:25:08.523Z,100.00
2022-09-13T05:27:37.213Z,100.00
2022-09-13T05:30:07.536Z,100.00
2022-09-13T05:32:36.354Z,100.00
2022-09-13T05:35:05.596Z,100.00
2022-09-13T05:37:34.189Z,100.00
2022-09-13T05:40:12.739Z,100.00
2022-09-13T05:42:41.715Z,100.00
2022-09-13T05:45:11.102Z,100.00
2022-09-13T05:47:39.865Z,100.00
2022-09-13T05:50:15.824Z,100.00
2022-09-13T05:52:54.263Z,100.00
2022-09-13T05:55:24.996Z,100.00
2022-09-13T05:57:53.801Z,100.00
2022-09-13T06:00:23.062Z,100.00
2022-09-13T06:02:51.727Z,100.00
2022-09-13T06:05:20.580Z,100.00
2022-09-13T06:07:49.362Z,100.00
2022-09-13T06:10:18.204Z,100.00
2022-09-13T06:12:48.521Z,100.00
2022-09-13T06:15:17.330Z,100.00
2022-09-13T06:17:47.095Z,100.00
2022-09-13T06:20:16.066Z,100.00
2022-09-13T06:22:44.703Z,100.00
2022-09-13T06:25:14.181Z,100.00
2022-09-13T06:27:43.249Z,100.00
2022-09-13T06:30:15.690Z,98.39
2022-09-13T06:32:44.645Z,100.00
2022-09-13T06:35:13.287Z,100.00
2022-09-13T06:37:41.865Z,100.00
2022-09-13T06:40:12.226Z,100.00
2022-09-13T06:42:41.101Z,100.00
2022-09-13T06:45:10.834Z,100.00
2022-09-13T06:47:41.330Z,100.00
2022-09-13T06:50:11.048Z,100.00
2022-09-13T06:52:39.727Z,100.00
2022-09-13T06:55:12.651Z,100.00
2022-09-13T06:57:41.530Z,100.00
2022-09-13T07:00:12.782Z,100.00
2022-09-13T07:02:42.922Z,100.00
2022-09-13T07:05:12.096Z,97.71
2022-09-13T07:07:40.669Z,93.66
2022-09-13T07:10:10.930Z,92.49
2022-09-13T07:12:42.494Z,84.10
2022-09-13T07:15:12.176Z,85.09
2022-09-13T07:17:42.451Z,85.01
2022-09-13T07:20:11.460Z,82.93
2022-09-13T07:22:40.148Z,85.51
2022-09-13T07:25:10.405Z,86.17
2022-09-13T07:27:39.119Z,84.05
2022-09-13T07:30:09.611Z,82.22
2022-09-13T07:32:38.425Z,79.47
2022-09-13T07:35:09.012Z,64.43
2022-09-13T07:37:37.660Z,64.02
2022-09-13T07:40:08.163Z,66.37
2022-09-13T07:42:36.762Z,66.95
2022-09-13T07:45:06.324Z,63.47
2022-09-13T07:47:35.210Z,53.10
2022-09-13T07:50:03.874Z,57.27
2022-09-13T07:52:37.742Z,61.74
2022-09-13T07:55:07.236Z,56.33
2022-09-13T07:57:35.820Z,54.35
2022-09-13T08:00:06.547Z,47.81
2022-09-13T08:02:40.828Z,55.13
2022-09-13T08:05:09.836Z,54.07
2022-09-13T08:07:40.019Z,51.03
2022-09-13T08:10:09.836Z,50.53
2022-09-13T08:12:38.428Z,54.20
2022-09-13T08:15:08.372Z,46.74
2022-09-13T08:17:37.574Z,49.90
2022-09-13T08:20:10.370Z,47.11
2022-09-13T08:22:40.859Z,41.13
2022-09-13T08:25:10.229Z,43.74
2022-09-13T08:27:38.938Z,43.01
2022-09-13T08:30:09.272Z,40.76
2022-09-13T08:32:37.850Z,40.42
2022-09-13T08:35:07.092Z,47.35
2022-09-13T08:37:36.105Z,45.66
2022-09-13T08:40:07.741Z,48.52
2022-09-13T08:47:36.432Z,45.67
2022-09-13T08:50:18.814Z,38.63
2022-09-13T08:53:03.874Z,45.47
2022-09-13T08:55:50.358Z,41.90
2022-09-13T08:58:58.367Z,43.49
2022-09-13T09:01:50.886Z,38.28
2022-09-13T09:04:39.113Z,41.70
2022-09-13T09:07:14.677Z,44.03
2022-09-13T09:09:50.197Z,41.38
2022-09-13T09:12:31.439Z,40.07
2022-09-13T09:15:09.791Z,42.02
2022-09-13T09:17:51.531Z,39.65
2022-09-13T09:20:34.981Z,38.01
2022-09-13T09:23:16.772Z,45.15
2022-09-13T09:25:53.022Z,41.82
2022-09-13T09:28:23.255Z,42.72
2022-09-13T09:31:05.947Z,44.00
2022-09-13T09:33:53.278Z,44.36
2022-09-13T09:36:37.351Z,41.33
2022-09-13T09:39:08.153Z,46.17
2022-09-13T09:41:38.501Z,42.94
2022-09-13T09:44:20.305Z,47.05
2022-09-13T09:46:57.790Z,45.49
2022-09-13T09:49:52.082Z,42.27
2022-09-13T09:52:29.571Z,34.92
2022-09-13T09:55:13.331Z,39.37
2022-09-13T09:57:54.484Z,43.13
2022-09-13T10:00:29.004Z,38.93
2022-09-13T10:03:03.451Z,40.63
2022-09-13T10:05:33.421Z,41.39
2022-09-13T10:08:05.735Z,38.86
2022-09-13T10:10:42.715Z,44.09
2022-09-13T10:13:19.947Z,41.69
2022-09-13T10:15:59.090Z,47.53
2022-09-13T10:18:45.500Z,43.88
2022-09-13T10:21:26.398Z,50.30
2022-09-13T10:24:22.410Z,46.12
2022-09-13T10:26:51.462Z,50.64
2022-09-13T10:29:20.230Z,47.76
2022-09-13T10:36:50.607Z,50.10
2022-09-13T10:39:21.311Z,47.32
2022-09-13T10:41:55.883Z,49.79
2022-09-13T10:44:32.410Z,49.00
2022-09-13T10:47:06.568Z,49.50
2022-09-13T10:49:43.903Z,45.02
2022-09-13T10:52:33.871Z,44.99
2022-09-13T10:55:32.524Z,49.83
2022-09-13T10:58:21.149Z,43.70
2022-09-13T11:01:40.937Z,46.25
2022-09-13T11:04:53.549Z,46.41
2022-09-13T11:07:41.486Z,48.58
2022-09-13T11:10:22.153Z,49.86
2022-09-13T11:13:03.794Z,50.37
2022-09-13T11:15:59.183Z,51.70
2022-09-13T11:18:59.101Z,49.60
2022-09-13T11:21:48.114Z,51.76
2022-09-13T11:24:47.303Z,53.58
2022-09-13T11:27:29.668Z,55.84
2022-09-13T11:30:11.695Z,60.52
2022-09-13T11:33:25.117Z,55.44
2022-09-13T11:36:18.966Z,56.56
2022-09-13T11:39:04.307Z,57.92
2022-09-13T11:41:50.253Z,52.90
2022-09-13T11:45:09.073Z,55.56
2022-09-13T11:47:59.128Z,59.02
2022-09-13T11:50:39.883Z,62.28
2022-09-13T11:53:40.572Z,60.72
2022-09-13T11:56:17.674Z,58.50
2022-09-13T11:58:52.901Z,59.82
2022-09-13T12:01:29.097Z,61.28
2022-09-13T12:04:05.442Z,60.62
2022-09-13T12:06:41.727Z,57.03
2022-09-13T12:09:20.547Z,64.73
2022-09-13T12:11:56.523Z,62.92
2022-09-13T12:14:45.436Z,62.66
2022-09-13T12:17:30.469Z,62.10
2022-09-13T12:20:04.389Z,63.74
2022-09-13T12:22:36.942Z,60.11
2022-09-13T12:25:20.930Z,64.33
2022-09-13T12:28:05.630Z,63.39
2022-09-13T12:30:48.995Z,66.51
2022-09-13T12:33:18.270Z,65.84
2022-09-13T12:36:06.500Z,67.00
2022-09-13T12:39:14.047Z,66.21
2022-09-13T12:42:06.279Z,70.53
2022-09-13T12:44:57.869Z,70.81
2022-09-13T12:47:57.348Z,71.53
2022-09-13T12:50:52.423Z,70.18
2022-09-13T12:54:02.591Z,67.34
2022-09-13T12:56:45.172Z,67.30
2022-09-13T12:59:35.820Z,67.24
2022-09-13T13:02:26.991Z,68.77
2022-09-13T13:05:01.884Z,68.99
2022-09-13T13:07:36.141Z,67.71
2022-09-13T13:10:06.972Z,68.41
2022-09-13T13:12:39.888Z,69.08
2022-09-13T13:16:01.927Z,70.49
2022-09-13T13:18:44.462Z,69.81
2022-09-13T13:21:39.152Z,70.05
2022-09-13T13:24:45.112Z,70.52
2022-09-13T13:27:48.061Z,68.36
2022-09-13T13:30:54.178Z,70.19
2022-09-13T13:33:28.513Z,68.19
2022-09-13T13:35:57.477Z,68.44
2022-09-13T13:38:47.784Z,68.07
2022-09-13T13:41:45.078Z,68.16
2022-09-13T13:45:09.513Z,68.76
2022-09-13T13:48:11.943Z,68.87
2022-09-13T13:51:17.549Z,67.69
2022-09-13T13:53:56.286Z,66.92
2022-09-13T13:56:49.373Z,68.90
2022-09-13T13:59:28.217Z,70.14
2022-09-13T14:02:01.956Z,71.65
2022-09-13T14:05:14.619Z,68.56
2022-09-13T14:08:16.892Z,67.97
2022-09-13T14:11:00.127Z,67.91
2022-09-13T14:14:00.299Z,68.54
2022-09-13T14:16:51.135Z,69.58
2022-09-13T14:19:27.715Z,71.68
2022-09-13T14:22:16.948Z,72.00
2022-09-13T14:24:48.904Z,72.24
2022-09-13T14:27:24.243Z,70.35
2022-09-13T14:29:57.371Z,71.91
2022-09-13T14:32:35.046Z,72.65
2022-09-13T14:35:23.081Z,76.28
2022-09-13T14:37:51.979Z,77.28
2022-09-13T14:40:26.695Z,77.00
2022-09-13T14:42:57.483Z,74.84
2022-09-13T14:45:33.345Z,76.06
2022-09-13T14:48:09.023Z,75.11
2022-09-13T14:50:43.636Z,76.88
2022-09-13T14:53:19.476Z,75.78
2022-09-13T14:55:55.358Z,77.51
2022-09-13T14:58:30.477Z,73.50
2022-09-13T15:05:37.265Z,79.23
2022-09-13T15:08:28.739Z,77.65
2022-09-13T15:12:38.669Z,71.70
2022-09-13T15:15:33.813Z,72.24
2022-09-13T15:18:07.650Z,76.33
2022-09-13T15:20:52.881Z,75.21
2022-09-13T15:23:28.136Z,78.46
2022-09-13T15:26:01.042Z,74.80
2022-09-13T15:28:33.881Z,75.50
2022-09-13T15:31:04.411Z,75.18
2022-09-13T15:33:35.954Z,75.48
2022-09-13T15:36:31.827Z,76.70
2022-09-13T15:39:04.739Z,75.61
2022-09-13T15:41:35.814Z,74.95
2022-09-13T15:44:07.338Z,75.73
2022-09-13T15:46:48.141Z,78.18
2022-09-13T15:49:20.634Z,75.79
2022-09-13T15:51:55.225Z,78.54
2022-09-13T15:54:27.104Z,77.34
2022-09-13T15:57:00.662Z,76.27
2022-09-13T15:59:29.577Z,76.11
2022-09-13T16:02:01.331Z,76.89
2022-09-13T16:04:30.087Z,77.62
2022-09-13T16:06:58.959Z,77.10
2022-09-13T16:09:28.128Z,76.59
2022-09-13T16:11:57.129Z,76.97
2022-09-13T16:14:26.245Z,77.92
2022-09-13T16:16:56.398Z,79.21
2022-09-13T16:19:26.483Z,81.42
2022-09-13T16:21:55.403Z,80.76
2022-09-13T16:24:24.081Z,83.20
2022-09-13T16:26:52.832Z,85.43
2022-09-13T16:29:21.757Z,87.70
2022-09-13T16:31:50.845Z,87.81
2022-09-13T16:34:19.569Z,90.36
2022-09-13T16:36:49.772Z,93.77
2022-09-13T16:39:19.421Z,94.21
2022-09-13T16:41:48.714Z,91.19
2022-09-13T16:44:18.195Z,93.42
2022-09-13T16:46:46.960Z,94.56
2022-09-13T16:49:15.794Z,95.10
2022-09-13T16:51:44.587Z,94.65
2022-09-13T16:54:16.084Z,92.58
2022-09-13T16:56:44.761Z,95.28
2022-09-13T16:59:13.597Z,98.28
2022-09-13T17:01:42.394Z,96.15
2022-09-13T17:04:11.836Z,99.89
2022-09-13T17:06:41.366Z,100.00
2022-09-13T17:09:10.505Z,99.58
2022-09-13T17:11:44.579Z,97.07
2022-09-13T17:14:18.271Z,98.37
2022-09-13T17:16:50.836Z,95.43
2022-09-13T17:19:22.705Z,98.86
2022-09-13T17:21:52.474Z,98.99
2022-09-13T17:24:21.976Z,98.13
2022-09-13T17:26:52.157Z,96.96
2022-09-13T17:29:21.188Z,95.73
2022-09-13T17:31:50.433Z,94.74
2022-09-13T17:34:21.944Z,98.22
2022-09-13T17:41:26.519Z,97.78
2022-09-13T17:43:57.289Z,100.00
2022-09-13T17:46:30.130Z,100.00
2022-09-13T17:49:01.599Z,99.68
2022-09-13T17:51:33.948Z,98.49
2022-09-13T17:54:06.520Z,97.90
2022-09-13T17:56:37.961Z,95.16
2022-09-13T17:59:10.902Z,95.84
2022-09-13T18:01:43.495Z,96.35
2022-09-13T18:04:14.220Z,94.93
2022-09-13T18:06:44.930Z,94.36
2022-09-13T18:09:16.559Z,93.95
2022-09-13T18:16:22.271Z,93.33
2022-09-13T18:18:53.495Z,93.70
2022-09-13T18:21:27.759Z,94.38
2022-09-13T18:23:59.807Z,92.48
2022-09-13T18:26:31.486Z,93.22
2022-09-13T18:29:03.443Z,92.07
2022-09-13T18:31:37.379Z,93.38
2022-09-13T18:34:11.336Z,91.99
2022-09-13T18:36:42.064Z,93.21
2022-09-13T18:39:19.098Z,92.39
2022-09-13T18:41:50.322Z,92.30
2022-09-13T18:44:19.742Z,92.48
2022-09-13T18:46:51.503Z,92.09
2022-09-13T18:49:20.901Z,92.26
2022-09-13T18:51:50.330Z,92.39
2022-09-13T18:54:21.130Z,92.84
2022-09-13T18:56:50.995Z,92.77
2022-09-13T18:59:21.074Z,92.60
2022-09-13T19:01:53.764Z,92.87
2022-09-13T19:04:23.229Z,93.65
2022-09-13T19:06:57.533Z,93.05
2022-09-13T19:09:26.975Z,92.91
2022-09-13T19:11:57.352Z,93.28
2022-09-13T19:19:01.570Z,93.77
2022-09-13T19:21:33.673Z,93.99
2022-09-13T19:24:09.354Z,94.30
2022-09-13T19:26:44.202Z,93.88
2022-09-13T19:29:18.256Z,93.31
2022-09-13T19:31:50.181Z,93.42
2022-09-13T19:34:24.720Z,93.05
2022-09-13T19:36:58.426Z,93.97
2022-09-13T19:39:30.526Z,94.14
2022-09-13T19:42:01.238Z,94.91
2022-09-13T19:44:31.803Z,94.96
2022-09-13T19:47:45.011Z,95.40
2022-09-13T19:49:53.915Z,95.11
2022-09-13T19:52:24.335Z,96.91
2022-09-13T19:54:56.458Z,94.81
2022-09-13T19:57:25.594Z,95.01
2022-09-13T19:59:56.263Z,95.07
2022-09-13T20:02:26.735Z,95.84
2022-09-13T20:04:58.709Z,93.38
2022-09-13T20:07:28.597Z,96.03
2022-09-13T20:10:01.692Z,95.14
2022-09-13T20:12:31.744Z,98.61
2022-09-13T20:15:01.106Z,98.75
2022-09-13T20:17:32.362Z,98.21
2022-09-13T20:20:04.726Z,100.00
2022-09-13T20:22:35.294Z,95.33
2022-09-13T20:25:06.548Z,98.32
2022-09-13T20:32:09.529Z,100.00
2022-09-13T20:34:40.061Z,98.89
2022-09-13T20:37:11.698Z,100.00
2022-09-13T20:39:42.179Z,98.28
2022-09-13T20:42:13.839Z,100.00
2022-09-13T20:44:43.802Z,100.00
2022-09-13T20:47:13.548Z,100.00
2022-09-13T20:49:43.562Z,100.00
2022-09-13T20:52:14.803Z,100.00
2022-09-13T20:54:43.654Z,100.00
2022-09-13T20:57:12.377Z,100.00
2022-09-13T20:59:41.130Z,100.00
2022-09-13T21:02:11.112Z,100.00
2022-09-13T21:04:39.803Z,100.00
2022-09-13T21:07:26.025Z,100.00
2022-09-13T21:09:58.070Z,100.00
2022-09-13T21:12:26.847Z,100.00
2022-09-13T21:14:55.899Z,100.00
2022-09-13T21:17:24.644Z,98.30
2022-09-13T21:19:53.311Z,98.66
2022-09-13T21:22:22.171Z,97.09
2022-09-13T21:24:50.785Z,99.45
2022-09-13T21:27:21.240Z,96.34
2022-09-13T21:29:50.341Z,98.55
2022-09-13T21:32:18.945Z,96.30
2022-09-13T21:34:47.518Z,100.00
2022-09-13T21:37:16.416Z,100.00
2022-09-13T21:39:45.180Z,100.00
2022-09-13T21:42:15.950Z,100.00
2022-09-13T21:44:46.348Z,100.00
2022-09-13T21:47:15.000Z,100.00
2022-09-13T21:49:45.305Z,100.00
2022-09-13T21:52:14.294Z,100.00
2022-09-13T21:54:42.941Z,100.00
2022-09-13T21:57:11.689Z,100.00
2022-09-13T21:59:40.676Z,100.00
2022-09-13T22:02:11.773Z,100.00
2022-09-13T22:04:40.744Z,100.00
2022-09-13T22:07:10.105Z,100.00
2022-09-13T22:09:38.736Z,100.00
2022-09-13T22:12:07.754Z,100.00
2022-09-13T22:14:36.533Z,100.00
2022-09-13T22:17:05.322Z,100.00
2022-09-13T22:19:35.320Z,100.00
2022-09-13T22:22:04.150Z,100.00
2022-09-13T22:24:35.772Z,100.00
2022-09-13T22:27:06.508Z,100.00
2022-09-13T22:29:35.486Z,100.00
2022-09-13T22:32:05.074Z,100.00
2022-09-13T22:34:35.392Z,100.00
2022-09-13T22:37:04.257Z,100.00
2022-09-13T22:39:32.897Z,100.00
2022-09-13T22:42:01.783Z,100.00
2022-09-13T22:44:30.371Z,100.00
2022-09-13T22:47:00.437Z,100.00
2022-09-13T22:49:29.429Z,100.00
2022-09-13T22:51:59.331Z,100.00
2022-09-13T22:54:28.594Z,100.00
2022-09-13T22:56:57.839Z,100.00
2022-09-13T22:59:26.567Z,100.00
2022-09-13T23:01:55.235Z,100.00
2022-09-13T23:04:24.144Z,100.00
2022-09-13T23:06:52.705Z,100.00
2022-09-13T23:09:22.930Z,100.00
2022-09-13T23:11:51.740Z,100.00
2022-09-13T23:14:20.940Z,100.00
2022-09-13T23:16:52.234Z,100.00
2022-09-13T23:19:25.705Z,100.00
2022-09-13T23:21:55.179Z,100.00
2022-09-13T23:24:25.330Z,100.00
2022-09-13T23:26:57.004Z,100.00
2022-09-13T23:29:25.926Z,100.00
2022-09-13T23:31:55.039Z,100.00
2022-09-13T23:34:24.092Z,100.00
2022-09-13T23:36:53.897Z,100.00
2022-09-13T23:39:23.972Z,100.00
2022-09-13T23:41:53.211Z,100.00
2022-09-13T23:44:22.126Z,100.00
2022-09-13T23:46:51.253Z,100.00
2022-09-13T23:49:19.861Z,100.00
2022-09-13T23:51:48.942Z,100.00
2022-09-13T23:54:18.352Z,100.00
2022-09-13T23:56:48.371Z,100.00
2022-09-13T23:59:17.536Z,100.00
